sensor_id;sensor_type;location;lat;lon;timestamp;temperature;humidity
16158;DHT22;8184;60.256;18.694;2023-05-10T08:02:31;16.90;99.90
16158;DHT22;8184;60.256;18.694;2023-05-10T08:05:01;17.20;99.90
16158;DHT22;8184;60.256;18.694;2023-05-10T08:07:29;17.20;99.90
16158;DHT22;8184;60.256;18.694;2023-05-10T08:09:57;17.00;99.90
16158;DHT22;8184;60.256;18.694;2023-05-10T08:12:26;16.70;99.90
16158;DHT22;8184;60.256;18.694;2023-05-10T08:14:54;17.10;99.90
16158;DHT22;8184;60.256;18.694;2023-05-10T08:17:27;17.60;99.90
16158;DHT22;8184;60.256;18.694;2023-05-10T08:19:57;17.80;99.90
16158;DHT22;8184;60.256;18.694;2023-05-10T08:22:25;18.10;99.90
16158;DHT22;8184;60.256;18.694;2023-05-10T08:24:54;17.70;99.90
16158;DHT22;8184;60.256;18.694;2023-05-10T08:27:22;17.20;99.90
16158;DHT22;8184;60.256;18.694;2023-05-10T08:29:50;16.90;99.90
16158;DHT22;8184;60.256;18.694;2023-05-10T08:32:18;16.70;99.90
16158;DHT22;8184;60.256;18.694;2023-05-10T08:34:47;16.60;99.90
16158;DHT22;8184;60.256;18.694;2023-05-10T08:37:16;16.40;99.90
16158;DHT22;8184;60.256;18.694;2023-05-10T08:39:44;16.50;99.90
16158;DHT22;8184;60.256;18.694;2023-05-10T08:42:15;16.80;99.90
16158;DHT22;8184;60.256;18.694;2023-05-10T08:44:44;17.30;99.90
16158;DHT22;8184;60.256;18.694;2023-05-10T08:47:16;17.20;99.90
16158;DHT22;8184;60.256;18.694;2023-05-10T08:49:44;16.40;99.90
16158;DHT22;8184;60.256;18.694;2023-05-10T08:52:16;16.50;99.90
16158;DHT22;8184;60.256;18.694;2023-05-10T08:54:45;16.90;99.90
16158;DHT22;8184;60.256;18.694;2023-05-10T08:57:13;17.10;99.90
16158;DHT22;8184;60.256;18.694;2023-05-10T08:59:42;17.00;99.90
16158;DHT22;8184;60.256;18.694;2023-05-10T09:02:10;16.90;99.90
16158;DHT22;8184;60.256;18.694;2023-05-10T09:04:41;17.40;99.90
16158;DHT22;8184;60.256;18.694;2023-05-10T09:07:09;17.50;99.90
16158;DHT22;8184;60.256;18.694;2023-05-10T09:09:42;17.60;99.90
16158;DHT22;8184;60.256;18.694;2023-05-10T09:12:10;18.10;99.90
16158;DHT22;8184;60.256;18.694;2023-05-10T09:14:39;17.70;99.90
16158;DHT22;8184;60.256;18.694;2023-05-10T09:17:07;17.10;99.90
16158;DHT22;8184;60.256;18.694;2023-05-10T09:19:35;17.00;99.90
16158;DHT22;8184;60.256;18.694;2023-05-10T09:22:04;16.50;99.90
16158;DHT22;8184;60.256;18.694;2023-05-10T09:24:34;16.30;99.90
16158;DHT22;8184;60.256;18.694;2023-05-10T09:27:05;16.50;99.90
16158;DHT22;8184;60.256;18.694;2023-05-10T09:29:38;16.20;99.90
16158;DHT22;8184;60.256;18.694;2023-05-10T09:32:07;16.80;99.90
16158;DHT22;8184;60.256;18.694;2023-05-10T09:34:35;17.60;99.90
16158;DHT22;8184;60.256;18.694;2023-05-10T09:37:06;18.40;99.90
16158;DHT22;8184;60.256;18.694;2023-05-10T09:39:35;19.10;99.90
16158;DHT22;8184;60.256;18.694;2023-05-10T09:42:09;19.40;99.90
16158;DHT22;8184;60.256;18.694;2023-05-10T09:44:37;19.30;99.90
16158;DHT22;8184;60.256;18.694;2023-05-10T09:47:07;19.20;99.90
16158;DHT22;8184;60.256;18.694;2023-05-10T09:49:36;17.80;99.90
16158;DHT22;8184;60.256;18.694;2023-05-10T09:52:04;17.60;99.90
16158;DHT22;8184;60.256;18.694;2023-05-10T09:54:33;17.30;99.90
16158;DHT22;8184;60.256;18.694;2023-05-10T09:57:03;17.50;99.90
16158;DHT22;8184;60.256;18.694;2023-05-10T09:59:33;17.70;99.90
16158;DHT22;8184;60.256;18.694;2023-05-10T10:02:03;17.40;99.90
16158;DHT22;8184;60.256;18.694;2023-05-10T10:04:32;17.20;99.90
16158;DHT22;8184;60.256;18.694;2023-05-10T10:07:01;17.90;99.90
16158;DHT22;8184;60.256;18.694;2023-05-10T10:09:30;18.90;99.90
16158;DHT22;8184;60.256;18.694;2023-05-10T10:11:59;18.40;99.90
16158;DHT22;8184;60.256;18.694;2023-05-10T10:14:27;19.10;99.90
16158;DHT22;8184;60.256;18.694;2023-05-10T10:16:57;19.30;99.90
16158;DHT22;8184;60.256;18.694;2023-05-10T10:19:34;19.80;99.90
16158;DHT22;8184;60.256;18.694;2023-05-10T10:22:04;20.20;99.90
16158;DHT22;8184;60.256;18.694;2023-05-10T10:24:32;20.50;99.90
16158;DHT22;8184;60.256;18.694;2023-05-10T10:27:03;20.50;99.90
16158;DHT22;8184;60.256;18.694;2023-05-10T10:29:33;20.60;99.90
16158;DHT22;8184;60.256;18.694;2023-05-10T10:32:06;20.70;99.90
16158;DHT22;8184;60.256;18.694;2023-05-10T10:34:39;20.70;99.90
16158;DHT22;8184;60.256;18.694;2023-05-10T10:37:08;20.50;99.90
16158;DHT22;8184;60.256;18.694;2023-05-10T10:39:36;20.60;99.90
16158;DHT22;8184;60.256;18.694;2023-05-10T10:42:04;20.80;99.90
16158;DHT22;8184;60.256;18.694;2023-05-10T10:44:33;21.10;99.90
16158;DHT22;8184;60.256;18.694;2023-05-10T10:50:01;21.10;99.90
16158;DHT22;8184;60.256;18.694;2023-05-10T10:52:31;21.20;99.90
16158;DHT22;8184;60.256;18.694;2023-05-10T10:57:29;20.60;99.90
16158;DHT22;8184;60.256;18.694;2023-05-10T11:00:18;20.30;99.90
16158;DHT22;8184;60.256;18.694;2023-05-10T11:02:46;21.00;99.90
16158;DHT22;8184;60.256;18.694;2023-05-10T11:05:33;21.30;99.90
16158;DHT22;8184;60.256;18.694;2023-05-10T11:08:06;21.30;99.90
16158;DHT22;8184;60.256;18.694;2023-05-10T11:10:35;20.30;99.90
16158;DHT22;8184;60.256;18.694;2023-05-10T11:13:04;19.20;99.90
16158;DHT22;8184;60.256;18.694;2023-05-10T11:15:33;19.10;99.90
16158;DHT22;8184;60.256;18.694;2023-05-10T11:18:16;18.30;99.90
16158;DHT22;8184;60.256;18.694;2023-05-10T11:20:48;18.00;99.90
16158;DHT22;8184;60.256;18.694;2023-05-10T11:23:17;17.70;99.90
16158;DHT22;8184;60.256;18.694;2023-05-10T11:25:48;17.60;99.90
16158;DHT22;8184;60.256;18.694;2023-05-10T11:28:18;17.10;99.90
16158;DHT22;8184;60.256;18.694;2023-05-10T11:30:47;18.10;99.90
16158;DHT22;8184;60.256;18.694;2023-05-10T11:33:15;17.90;99.90
16158;DHT22;8184;60.256;18.694;2023-05-10T11:35:46;17.70;99.90
16158;DHT22;8184;60.256;18.694;2023-05-10T11:38:14;17.20;99.90
16158;DHT22;8184;60.256;18.694;2023-05-10T11:40:42;17.00;99.90
16158;DHT22;8184;60.256;18.694;2023-05-10T11:43:11;17.10;99.90
16158;DHT22;8184;60.256;18.694;2023-05-10T11:45:40;17.40;99.90
16158;DHT22;8184;60.256;18.694;2023-05-10T11:48:08;17.10;99.90
16158;DHT22;8184;60.256;18.694;2023-05-10T11:50:37;17.60;99.90
16158;DHT22;8184;60.256;18.694;2023-05-10T11:53:06;17.40;99.90
16158;DHT22;8184;60.256;18.694;2023-05-10T11:55:35;17.20;99.90
16158;DHT22;8184;60.256;18.694;2023-05-10T11:58:03;17.60;99.90
16158;DHT22;8184;60.256;18.694;2023-05-10T12:00:31;18.50;99.90
16158;DHT22;8184;60.256;18.694;2023-05-10T12:03:02;17.80;99.90
16158;DHT22;8184;60.256;18.694;2023-05-10T12:05:31;17.00;99.90
16158;DHT22;8184;60.256;18.694;2023-05-10T12:08:14;16.70;99.90
16158;DHT22;8184;60.256;18.694;2023-05-10T12:10:43;17.00;99.90
16158;DHT22;8184;60.256;18.694;2023-05-10T12:13:11;16.60;99.90
16158;DHT22;8184;60.256;18.694;2023-05-10T12:15:41;17.10;99.90
16158;DHT22;8184;60.256;18.694;2023-05-10T12:18:09;16.50;99.90
16158;DHT22;8184;60.256;18.694;2023-05-10T12:20:38;16.60;99.90
16158;DHT22;8184;60.256;18.694;2023-05-10T12:23:08;17.00;99.90
16158;DHT22;8184;60.256;18.694;2023-05-10T12:25:38;16.90;99.90
16158;DHT22;8184;60.256;18.694;2023-05-10T12:28:07;16.80;99.90
16158;DHT22;8184;60.256;18.694;2023-05-10T12:30:36;17.10;99.90
16158;DHT22;8184;60.256;18.694;2023-05-10T12:33:07;16.90;99.90
16158;DHT22;8184;60.256;18.694;2023-05-10T12:35:43;17.30;99.90
16158;DHT22;8184;60.256;18.694;2023-05-10T12:38:27;16.90;99.90
16158;DHT22;8184;60.256;18.694;2023-05-10T12:41:02;16.70;99.90
16158;DHT22;8184;60.256;18.694;2023-05-10T12:43:31;16.00;99.90
16158;DHT22;8184;60.256;18.694;2023-05-10T12:46:05;16.20;99.90
16158;DHT22;8184;60.256;18.694;2023-05-10T12:48:34;16.80;99.90
16158;DHT22;8184;60.256;18.694;2023-05-10T12:51:02;16.80;99.90
16158;DHT22;8184;60.256;18.694;2023-05-10T12:53:31;16.50;99.90
16158;DHT22;8184;60.256;18.694;2023-05-10T12:56:01;16.50;99.90
16158;DHT22;8184;60.256;18.694;2023-05-10T12:58:29;17.10;99.90
16158;DHT22;8184;60.256;18.694;2023-05-10T13:01:02;18.30;99.90
16158;DHT22;8184;60.256;18.694;2023-05-10T13:03:31;19.10;99.90
16158;DHT22;8184;60.256;18.694;2023-05-10T13:05:59;19.00;99.90
16158;DHT22;8184;60.256;18.694;2023-05-10T13:08:28;18.80;99.90
16158;DHT22;8184;60.256;18.694;2023-05-10T13:11:01;19.70;99.90
16158;DHT22;8184;60.256;18.694;2023-05-10T13:13:30;20.30;99.90
16158;DHT22;8184;60.256;18.694;2023-05-10T13:15:58;18.60;99.90
16158;DHT22;8184;60.256;18.694;2023-05-10T13:18:26;18.90;99.90
16158;DHT22;8184;60.256;18.694;2023-05-10T13:20:55;16.90;99.90
16158;DHT22;8184;60.256;18.694;2023-05-10T13:23:23;16.20;99.90
16158;DHT22;8184;60.256;18.694;2023-05-10T13:25:51;16.60;99.90
16158;DHT22;8184;60.256;18.694;2023-05-10T13:28:21;17.60;99.90
16158;DHT22;8184;60.256;18.694;2023-05-10T13:30:49;16.60;99.90
16158;DHT22;8184;60.256;18.694;2023-05-10T13:33:17;16.80;99.90
16158;DHT22;8184;60.256;18.694;2023-05-10T13:35:46;16.70;99.90
16158;DHT22;8184;60.256;18.694;2023-05-10T13:38:14;16.50;99.90
16158;DHT22;8184;60.256;18.694;2023-05-10T13:40:42;16.60;99.90
16158;DHT22;8184;60.256;18.694;2023-05-10T13:43:13;16.70;99.90
16158;DHT22;8184;60.256;18.694;2023-05-10T13:45:46;16.50;99.90
16158;DHT22;8184;60.256;18.694;2023-05-10T13:48:14;17.40;99.90
16158;DHT22;8184;60.256;18.694;2023-05-10T13:50:42;17.20;99.90
16158;DHT22;8184;60.256;18.694;2023-05-10T13:53:11;18.00;99.90
16158;DHT22;8184;60.256;18.694;2023-05-10T13:55:41;18.70;99.90
16158;DHT22;8184;60.256;18.694;2023-05-10T13:58:12;19.30;99.90
16158;DHT22;8184;60.256;18.694;2023-05-10T14:00:40;19.70;99.90
16158;DHT22;8184;60.256;18.694;2023-05-10T14:03:10;20.30;99.90
16158;DHT22;8184;60.256;18.694;2023-05-10T14:05:39;20.80;99.90
16158;DHT22;8184;60.256;18.694;2023-05-10T14:08:07;20.40;99.90
16158;DHT22;8184;60.256;18.694;2023-05-10T14:10:36;20.40;99.90
16158;DHT22;8184;60.256;18.694;2023-05-10T14:13:04;20.40;99.90
16158;DHT22;8184;60.256;18.694;2023-05-10T14:15:33;20.50;99.90
16158;DHT22;8184;60.256;18.694;2023-05-10T14:18:03;20.80;99.90
16158;DHT22;8184;60.256;18.694;2023-05-10T14:20:33;20.90;99.90
16158;DHT22;8184;60.256;18.694;2023-05-10T14:23:02;20.60;99.90
16158;DHT22;8184;60.256;18.694;2023-05-10T14:25:30;20.70;99.90
16158;DHT22;8184;60.256;18.694;2023-05-10T14:27:59;20.70;99.90
16158;DHT22;8184;60.256;18.694;2023-05-10T14:30:28;20.50;99.90
16158;DHT22;8184;60.256;18.694;2023-05-10T14:32:57;20.40;99.90
16158;DHT22;8184;60.256;18.694;2023-05-10T14:35:28;20.50;99.90
16158;DHT22;8184;60.256;18.694;2023-05-10T14:37:59;20.60;99.90
16158;DHT22;8184;60.256;18.694;2023-05-10T14:40:27;21.00;99.90
16158;DHT22;8184;60.256;18.694;2023-05-10T14:42:55;20.40;99.90
16158;DHT22;8184;60.256;18.694;2023-05-10T14:45:23;20.70;99.90
16158;DHT22;8184;60.256;18.694;2023-05-10T14:47:52;20.80;99.90
16158;DHT22;8184;60.256;18.694;2023-05-10T14:50:20;20.90;99.90
16158;DHT22;8184;60.256;18.694;2023-05-10T14:53:04;17.80;99.90
16158;DHT22;8184;60.256;18.694;2023-05-10T14:55:32;17.20;99.90
16158;DHT22;8184;60.256;18.694;2023-05-10T14:58:01;17.70;99.90
16158;DHT22;8184;60.256;18.694;2023-05-10T15:00:31;17.60;99.90
16158;DHT22;8184;60.256;18.694;2023-05-10T15:03:00;18.00;99.90
16158;DHT22;8184;60.256;18.694;2023-05-10T15:05:30;18.70;99.90
16158;DHT22;8184;60.256;18.694;2023-05-10T15:07:58;19.30;99.90
16158;DHT22;8184;60.256;18.694;2023-05-10T15:10:28;19.70;99.90
16158;DHT22;8184;60.256;18.694;2023-05-10T15:13:00;19.70;99.90
16158;DHT22;8184;60.256;18.694;2023-05-10T15:15:28;19.70;99.90
16158;DHT22;8184;60.256;18.694;2023-05-10T15:17:57;19.80;99.90
16158;DHT22;8184;60.256;18.694;2023-05-10T15:20:25;19.80;99.90
16158;DHT22;8184;60.256;18.694;2023-05-10T15:22:56;19.90;99.90
16158;DHT22;8184;60.256;18.694;2023-05-10T15:25:24;20.40;99.90
16158;DHT22;8184;60.256;18.694;2023-05-10T15:27:54;20.20;99.90
16158;DHT22;8184;60.256;18.694;2023-05-10T15:30:22;19.80;99.90
16158;DHT22;8184;60.256;18.694;2023-05-10T15:32:51;19.90;99.90
16158;DHT22;8184;60.256;18.694;2023-05-10T15:35:21;19.80;99.90
16158;DHT22;8184;60.256;18.694;2023-05-10T15:37:49;19.80;99.90
16158;DHT22;8184;60.256;18.694;2023-05-10T15:40:25;19.60;99.90
16158;DHT22;8184;60.256;18.694;2023-05-10T15:42:54;19.80;99.90
16158;DHT22;8184;60.256;18.694;2023-05-10T15:45:24;19.60;99.90
16158;DHT22;8184;60.256;18.694;2023-05-10T15:47:53;19.60;99.90
16158;DHT22;8184;60.256;18.694;2023-05-10T15:50:21;19.60;99.90
16158;DHT22;8184;60.256;18.694;2023-05-10T15:52:49;19.70;99.90
16158;DHT22;8184;60.256;18.694;2023-05-10T15:55:17;19.40;99.90
16158;DHT22;8184;60.256;18.694;2023-05-10T15:57:49;19.80;99.90
16158;DHT22;8184;60.256;18.694;2023-05-10T16:00:21;19.90;99.90
16158;DHT22;8184;60.256;18.694;2023-05-10T16:02:51;19.80;99.90
16158;DHT22;8184;60.256;18.694;2023-05-10T16:05:19;19.80;99.90
16158;DHT22;8184;60.256;18.694;2023-05-10T16:07:50;19.30;99.90
16158;DHT22;8184;60.256;18.694;2023-05-10T16:10:18;19.10;99.90
16158;DHT22;8184;60.256;18.694;2023-05-10T16:12:46;18.90;99.90
16158;DHT22;8184;60.256;18.694;2023-05-10T16:15:14;19.20;99.90
16158;DHT22;8184;60.256;18.694;2023-05-10T16:17:47;19.20;99.90
16158;DHT22;8184;60.256;18.694;2023-05-10T16:20:19;19.30;99.90
16158;DHT22;8184;60.256;18.694;2023-05-10T16:22:47;19.30;99.90
16158;DHT22;8184;60.256;18.694;2023-05-10T16:25:15;19.30;99.90
16158;DHT22;8184;60.256;18.694;2023-05-10T16:27:44;19.30;99.90
16158;DHT22;8184;60.256;18.694;2023-05-10T16:30:12;19.20;99.90
16158;DHT22;8184;60.256;18.694;2023-05-10T16:32:41;18.70;99.90
16158;DHT22;8184;60.256;18.694;2023-05-10T16:35:11;18.70;99.90
16158;DHT22;8184;60.256;18.694;2023-05-10T16:37:39;19.10;99.90
16158;DHT22;8184;60.256;18.694;2023-05-10T16:40:10;18.80;99.90
16158;DHT22;8184;60.256;18.694;2023-05-10T16:42:38;18.60;99.90
16158;DHT22;8184;60.256;18.694;2023-05-10T16:45:07;18.70;99.90
16158;DHT22;8184;60.256;18.694;2023-05-10T16:47:35;18.60;99.90
16158;DHT22;8184;60.256;18.694;2023-05-10T16:50:05;18.50;99.90
16158;DHT22;8184;60.256;18.694;2023-05-10T16:52:40;18.60;99.90
16158;DHT22;8184;60.256;18.694;2023-05-10T16:55:11;18.80;99.90
16158;DHT22;8184;60.256;18.694;2023-05-10T16:57:40;18.60;99.90
16158;DHT22;8184;60.256;18.694;2023-05-10T17:00:09;18.30;99.90
16158;DHT22;8184;60.256;18.694;2023-05-10T17:02:38;18.40;99.90
16158;DHT22;8184;60.256;18.694;2023-05-10T17:05:07;18.10;99.90
16158;DHT22;8184;60.256;18.694;2023-05-10T17:07:38;18.30;99.90
16158;DHT22;8184;60.256;18.694;2023-05-10T17:10:16;18.20;99.90
16158;DHT22;8184;60.256;18.694;2023-05-10T17:12:44;18.00;99.90
16158;DHT22;8184;60.256;18.694;2023-05-10T17:15:13;18.10;99.90
16158;DHT22;8184;60.256;18.694;2023-05-10T17:17:44;18.20;99.90
16158;DHT22;8184;60.256;18.694;2023-05-10T17:20:13;18.10;99.90
16158;DHT22;8184;60.256;18.694;2023-05-10T17:22:43;18.20;99.90
16158;DHT22;8184;60.256;18.694;2023-05-10T17:25:11;17.70;99.90
16158;DHT22;8184;60.256;18.694;2023-05-10T17:27:40;17.80;99.90
16158;DHT22;8184;60.256;18.694;2023-05-10T17:30:08;17.50;99.90
16158;DHT22;8184;60.256;18.694;2023-05-10T17:32:37;17.70;99.90
16158;DHT22;8184;60.256;18.694;2023-05-10T17:35:05;17.60;99.90
16158;DHT22;8184;60.256;18.694;2023-05-10T17:37:34;17.50;99.90
16158;DHT22;8184;60.256;18.694;2023-05-10T17:40:08;17.60;99.90
16158;DHT22;8184;60.256;18.694;2023-05-10T17:42:36;17.30;99.90
16158;DHT22;8184;60.256;18.694;2023-05-10T17:45:05;17.40;99.90
16158;DHT22;8184;60.256;18.694;2023-05-10T17:47:34;17.50;99.90
16158;DHT22;8184;60.256;18.694;2023-05-10T17:50:02;17.40;99.90
16158;DHT22;8184;60.256;18.694;2023-05-10T17:52:32;17.30;99.90
16158;DHT22;8184;60.256;18.694;2023-05-10T17:55:01;17.40;99.90
16158;DHT22;8184;60.256;18.694;2023-05-10T17:57:30;17.20;99.90
16158;DHT22;8184;60.256;18.694;2023-05-10T17:59:59;17.20;99.90
16158;DHT22;8184;60.256;18.694;2023-05-10T18:02:29;17.10;99.90
16158;DHT22;8184;60.256;18.694;2023-05-10T18:04:58;16.90;99.90
16158;DHT22;8184;60.256;18.694;2023-05-10T18:07:27;17.10;99.90
16158;DHT22;8184;60.256;18.694;2023-05-10T18:09:56;16.80;99.90
16158;DHT22;8184;60.256;18.694;2023-05-10T18:12:27;16.50;99.90
16158;DHT22;8184;60.256;18.694;2023-05-10T18:14:57;16.20;99.90
16158;DHT22;8184;60.256;18.694;2023-05-10T18:17:26;16.20;99.90
16158;DHT22;8184;60.256;18.694;2023-05-10T18:19:55;16.20;99.90
16158;DHT22;8184;60.256;18.694;2023-05-10T18:22:23;15.90;99.90
16158;DHT22;8184;60.256;18.694;2023-05-10T18:24:52;15.80;99.90
16158;DHT22;8184;60.256;18.694;2023-05-10T18:27:21;15.80;99.90
16158;DHT22;8184;60.256;18.694;2023-05-10T18:29:49;15.70;99.90
16158;DHT22;8184;60.256;18.694;2023-05-10T18:32:19;15.90;99.90
16158;DHT22;8184;60.256;18.694;2023-05-10T18:34:49;15.90;99.90
16158;DHT22;8184;60.256;18.694;2023-05-10T18:37:21;15.60;99.90
16158;DHT22;8184;60.256;18.694;2023-05-10T18:39:49;15.50;99.90
16158;DHT22;8184;60.256;18.694;2023-05-10T18:42:18;15.50;99.90
16158;DHT22;8184;60.256;18.694;2023-05-10T18:44:47;15.40;99.90
16158;DHT22;8184;60.256;18.694;2023-05-10T18:47:15;15.40;99.90
16158;DHT22;8184;60.256;18.694;2023-05-10T18:49:47;15.00;99.90
16158;DHT22;8184;60.256;18.694;2023-05-10T18:52:15;15.20;99.90
16158;DHT22;8184;60.256;18.694;2023-05-10T18:54:44;15.00;99.90
16158;DHT22;8184;60.256;18.694;2023-05-10T18:57:12;14.90;99.90
16158;DHT22;8184;60.256;18.694;2023-05-10T18:59:40;14.60;99.90
16158;DHT22;8184;60.256;18.694;2023-05-10T19:02:08;14.40;99.90
16158;DHT22;8184;60.256;18.694;2023-05-10T19:04:37;14.40;99.90
16158;DHT22;8184;60.256;18.694;2023-05-10T19:07:07;14.60;99.90
16158;DHT22;8184;60.256;18.694;2023-05-10T19:09:38;14.40;99.90
16158;DHT22;8184;60.256;18.694;2023-05-10T19:12:06;14.00;99.90
16158;DHT22;8184;60.256;18.694;2023-05-10T19:14:37;14.00;99.90
16158;DHT22;8184;60.256;18.694;2023-05-10T19:17:09;14.10;99.90
16158;DHT22;8184;60.256;18.694;2023-05-10T19:19:38;13.90;99.90
16158;DHT22;8184;60.256;18.694;2023-05-10T19:22:07;13.80;99.90
16158;DHT22;8184;60.256;18.694;2023-05-10T19:24:39;13.80;99.90
16158;DHT22;8184;60.256;18.694;2023-05-10T19:27:07;13.70;99.90
16158;DHT22;8184;60.256;18.694;2023-05-10T19:29:36;13.50;99.90
16158;DHT22;8184;60.256;18.694;2023-05-10T19:32:05;13.70;99.90
16158;DHT22;8184;60.256;18.694;2023-05-10T19:34:33;13.60;99.90
16158;DHT22;8184;60.256;18.694;2023-05-10T19:37:01;13.40;99.90
16158;DHT22;8184;60.256;18.694;2023-05-10T19:39:31;13.30;99.90
16158;DHT22;8184;60.256;18.694;2023-05-10T19:41:59;13.20;99.90
16158;DHT22;8184;60.256;18.694;2023-05-10T19:44:27;13.30;99.90
16158;DHT22;8184;60.256;18.694;2023-05-10T19:46:56;13.20;99.90
16158;DHT22;8184;60.256;18.694;2023-05-10T19:49:24;13.30;99.90
16158;DHT22;8184;60.256;18.694;2023-05-10T19:51:53;13.20;99.90
16158;DHT22;8184;60.256;18.694;2023-05-10T19:54:21;13.20;99.90
16158;DHT22;8184;60.256;18.694;2023-05-10T19:56:51;13.20;99.90
16158;DHT22;8184;60.256;18.694;2023-05-10T19:59:19;12.90;99.90
16158;DHT22;8184;60.256;18.694;2023-05-10T20:01:47;12.80;99.90
16158;DHT22;8184;60.256;18.694;2023-05-10T20:04:16;13.00;99.90
16158;DHT22;8184;60.256;18.694;2023-05-10T20:06:44;12.80;99.90
16158;DHT22;8184;60.256;18.694;2023-05-10T20:09:12;12.90;99.90
16158;DHT22;8184;60.256;18.694;2023-05-10T20:11:41;12.90;99.90
16158;DHT22;8184;60.256;18.694;2023-05-10T20:14:11;12.70;99.90
16158;DHT22;8184;60.256;18.694;2023-05-10T20:16:42;12.50;99.90
16158;DHT22;8184;60.256;18.694;2023-05-10T20:19:11;12.60;99.90
16158;DHT22;8184;60.256;18.694;2023-05-10T20:21:39;12.60;99.90
16158;DHT22;8184;60.256;18.694;2023-05-10T20:24:08;12.40;99.90
16158;DHT22;8184;60.256;18.694;2023-05-10T20:26:36;12.30;99.90
16158;DHT22;8184;60.256;18.694;2023-05-10T20:29:07;12.20;99.90
16158;DHT22;8184;60.256;18.694;2023-05-10T20:31:40;12.20;99.90
16158;DHT22;8184;60.256;18.694;2023-05-10T20:34:09;12.20;99.90
16158;DHT22;8184;60.256;18.694;2023-05-10T20:36:40;12.10;99.90
16158;DHT22;8184;60.256;18.694;2023-05-10T20:39:10;12.00;99.90
16158;DHT22;8184;60.256;18.694;2023-05-10T20:41:39;12.00;99.90
16158;DHT22;8184;60.256;18.694;2023-05-10T20:44:08;12.00;99.90
16158;DHT22;8184;60.256;18.694;2023-05-10T20:46:36;11.80;99.90
16158;DHT22;8184;60.256;18.694;2023-05-10T20:49:06;11.70;99.90
16158;DHT22;8184;60.256;18.694;2023-05-10T20:51:35;11.70;99.90
16158;DHT22;8184;60.256;18.694;2023-05-10T20:54:03;11.70;99.90
16158;DHT22;8184;60.256;18.694;2023-05-10T20:56:32;11.70;99.90
16158;DHT22;8184;60.256;18.694;2023-05-10T20:59:00;11.50;99.90
16158;DHT22;8184;60.256;18.694;2023-05-10T21:01:45;11.70;99.90
16158;DHT22;8184;60.256;18.694;2023-05-10T21:04:15;11.70;99.90
16158;DHT22;8184;60.256;18.694;2023-05-10T21:06:44;11.60;99.90
16158;DHT22;8184;60.256;18.694;2023-05-10T21:09:12;11.40;99.90
16158;DHT22;8184;60.256;18.694;2023-05-10T21:11:40;11.20;99.90
16158;DHT22;8184;60.256;18.694;2023-05-10T21:14:09;11.30;99.90
16158;DHT22;8184;60.256;18.694;2023-05-10T21:16:37;11.40;99.90
16158;DHT22;8184;60.256;18.694;2023-05-10T21:19:06;11.40;99.90
16158;DHT22;8184;60.256;18.694;2023-05-10T21:21:35;11.40;99.90
16158;DHT22;8184;60.256;18.694;2023-05-10T21:24:04;11.30;99.90
16158;DHT22;8184;60.256;18.694;2023-05-10T21:26:32;11.10;99.90
16158;DHT22;8184;60.256;18.694;2023-05-10T21:29:01;10.90;99.90
16158;DHT22;8184;60.256;18.694;2023-05-10T21:31:30;10.60;99.90
16158;DHT22;8184;60.256;18.694;2023-05-10T21:33:58;10.40;99.90
16158;DHT22;8184;60.256;18.694;2023-05-10T21:36:27;10.40;99.90
16158;DHT22;8184;60.256;18.694;2023-05-10T21:38:56;10.40;99.90
16158;DHT22;8184;60.256;18.694;2023-05-10T21:41:24;10.40;99.90
16158;DHT22;8184;60.256;18.694;2023-05-10T21:43:54;10.10;99.90
16158;DHT22;8184;60.256;18.694;2023-05-10T21:46:22;10.10;99.90
16158;DHT22;8184;60.256;18.694;2023-05-10T21:48:52;10.10;99.90
16158;DHT22;8184;60.256;18.694;2023-05-10T21:51:20;10.30;99.90
16158;DHT22;8184;60.256;18.694;2023-05-10T21:53:48;10.20;99.90
16158;DHT22;8184;60.256;18.694;2023-05-10T21:56:20;10.30;99.90
16158;DHT22;8184;60.256;18.694;2023-05-10T21:58:49;10.10;99.90
16158;DHT22;8184;60.256;18.694;2023-05-10T22:01:17;10.20;99.90
16158;DHT22;8184;60.256;18.694;2023-05-10T22:03:47;10.30;99.90
16158;DHT22;8184;60.256;18.694;2023-05-10T22:06:15;10.20;99.90
16158;DHT22;8184;60.256;18.694;2023-05-10T22:08:43;10.30;99.90
16158;DHT22;8184;60.256;18.694;2023-05-10T22:11:11;10.20;99.90
16158;DHT22;8184;60.256;18.694;2023-05-10T22:13:41;10.40;99.90
16158;DHT22;8184;60.256;18.694;2023-05-10T22:16:09;10.20;99.90
16158;DHT22;8184;60.256;18.694;2023-05-10T22:18:41;10.20;99.90
16158;DHT22;8184;60.256;18.694;2023-05-10T22:21:09;10.20;99.90
16158;DHT22;8184;60.256;18.694;2023-05-10T22:23:38;10.00;99.90
16158;DHT22;8184;60.256;18.694;2023-05-10T22:26:06;9.90;99.90
16158;DHT22;8184;60.256;18.694;2023-05-10T22:28:34;9.90;99.90
16158;DHT22;8184;60.256;18.694;2023-05-10T22:31:07;9.90;99.90
16158;DHT22;8184;60.256;18.694;2023-05-10T22:33:35;9.80;99.90
16158;DHT22;8184;60.256;18.694;2023-05-10T22:36:04;9.70;99.90
16158;DHT22;8184;60.256;18.694;2023-05-10T22:38:35;9.70;99.90
16158;DHT22;8184;60.256;18.694;2023-05-10T22:41:04;9.80;99.90
16158;DHT22;8184;60.256;18.694;2023-05-10T22:43:32;9.60;99.90
16158;DHT22;8184;60.256;18.694;2023-05-10T22:46:00;9.50;99.90
16158;DHT22;8184;60.256;18.694;2023-05-10T22:48:30;9.60;99.90
16158;DHT22;8184;60.256;18.694;2023-05-10T22:51:01;9.50;99.90
16158;DHT22;8184;60.256;18.694;2023-05-10T22:53:29;9.60;99.90
16158;DHT22;8184;60.256;18.694;2023-05-10T22:55:57;9.40;99.90
16158;DHT22;8184;60.256;18.694;2023-05-10T22:58:25;9.40;99.90
16158;DHT22;8184;60.256;18.694;2023-05-10T23:00:54;9.40;99.90
16158;DHT22;8184;60.256;18.694;2023-05-10T23:03:22;9.40;99.90
16158;DHT22;8184;60.256;18.694;2023-05-10T23:05:52;9.40;99.90
16158;DHT22;8184;60.256;18.694;2023-05-10T23:08:21;9.40;99.90
16158;DHT22;8184;60.256;18.694;2023-05-10T23:10:49;9.30;99.90
16158;DHT22;8184;60.256;18.694;2023-05-10T23:13:17;9.40;99.90
16158;DHT22;8184;60.256;18.694;2023-05-10T23:15:46;9.40;99.90
16158;DHT22;8184;60.256;18.694;2023-05-10T23:18:15;9.40;99.90
16158;DHT22;8184;60.256;18.694;2023-05-10T23:20:43;9.20;99.90
16158;DHT22;8184;60.256;18.694;2023-05-10T23:23:13;9.20;99.90
16158;DHT22;8184;60.256;18.694;2023-05-10T23:25:42;9.30;99.90
16158;DHT22;8184;60.256;18.694;2023-05-10T23:28:10;9.00;99.90
16158;DHT22;8184;60.256;18.694;2023-05-10T23:30:38;9.00;99.90
16158;DHT22;8184;60.256;18.694;2023-05-10T23:33:06;9.10;99.90
16158;DHT22;8184;60.256;18.694;2023-05-10T23:35:35;9.10;99.90
16158;DHT22;8184;60.256;18.694;2023-05-10T23:38:05;8.90;99.90
16158;DHT22;8184;60.256;18.694;2023-05-10T23:40:35;8.80;99.90
16158;DHT22;8184;60.256;18.694;2023-05-10T23:43:03;9.10;99.90
16158;DHT22;8184;60.256;18.694;2023-05-10T23:45:32;8.90;99.90
16158;DHT22;8184;60.256;18.694;2023-05-10T23:48:00;8.80;99.90
16158;DHT22;8184;60.256;18.694;2023-05-10T23:50:28;8.90;99.90
16158;DHT22;8184;60.256;18.694;2023-05-10T23:52:57;9.00;99.90